createdAt,value
2023-04-09T00:02:28.130Z,100.00
2023-04-09T00:04:55.841Z,98.89
2023-04-09T00:07:23.593Z,100.00
2023-04-09T00:09:51.246Z,100.00
2023-04-09T00:12:18.923Z,100.00
2023-04-09T00:14:46.668Z,100.00
2023-04-09T00:17:14.515Z,100.00
2023-04-09T00:19:43.590Z,100.00
2023-04-09T00:22:11.423Z,99.04
2023-04-09T00:24:39.039Z,99.30
2023-04-09T00:27:06.992Z,100.00
2023-04-09T00:29:34.736Z,100.00
2023-04-09T00:32:02.743Z,99.64
2023-04-09T00:34:30.530Z,97.99
2023-04-09T00:36:59.706Z,97.33
2023-04-09T00:39:28.092Z,99.13
2023-04-09T00:41:59.291Z,98.53
2023-04-09T00:44:26.929Z,97.25
2023-04-09T00:46:55.493Z,96.61
2023-04-09T00:49:24.695Z,96.71
2023-04-09T00:51:52.396Z,96.97
2023-04-09T00:54:21.509Z,98.38
2023-04-09T00:56:49.202Z,97.81
2023-04-09T00:59:17.599Z,98.57
2023-04-09T01:01:46.191Z,96.33
2023-04-09T01:04:13.975Z,92.96
2023-04-09T01:06:50.686Z,92.65
2023-04-09T01:09:28.709Z,90.12
2023-04-09T01:12:07.422Z,93.86
2023-04-09T01:14:39.865Z,100.00
2023-04-09T01:17:16.630Z,95.24
2023-04-09T01:19:49.922Z,93.81
2023-04-09T01:22:31.498Z,98.38
2023-04-09T01:25:08.058Z,100.00
2023-04-09T01:27:52.614Z,100.00
2023-04-09T01:30:22.741Z,100.00
2023-04-09T01:32:52.767Z,100.00
2023-04-09T01:35:21.812Z,100.00
2023-04-09T01:37:50.666Z,100.00
2023-04-09T01:40:18.415Z,100.00
2023-04-09T01:42:47.277Z,100.00
2023-04-09T01:45:16.717Z,100.00
2023-04-09T01:47:46.592Z,100.00
2023-04-09T01:50:14.324Z,100.00
2023-04-09T01:52:42.172Z,100.00
2023-04-09T01:55:10.126Z,100.00
2023-04-09T01:57:37.796Z,100.00
2023-04-09T02:00:09.324Z,100.00
2023-04-09T02:03:00.257Z,100.00
2023-04-09T02:05:32.844Z,100.00
2023-04-09T02:08:05.061Z,100.00
2023-04-09T02:10:35.478Z,100.00
2023-04-09T02:13:06.721Z,100.00
2023-04-09T02:15:37.487Z,100.00
2023-04-09T02:18:21.374Z,100.00
2023-04-09T02:20:49.339Z,100.00
2023-04-09T02:23:16.993Z,100.00
2023-04-09T02:25:45.475Z,100.00
2023-04-09T02:28:13.317Z,100.00
2023-04-09T02:30:47.064Z,100.00
2023-04-09T02:33:16.258Z,100.00
2023-04-09T02:35:44.504Z,100.00
2023-04-09T02:38:13.804Z,100.00
2023-04-09T02:40:42.030Z,100.00
2023-04-09T02:43:09.923Z,100.00
2023-04-09T02:45:37.906Z,100.00
2023-04-09T02:48:05.990Z,100.00
2023-04-09T02:50:37.536Z,100.00
2023-04-09T02:53:05.218Z,100.00
2023-04-09T02:55:33.050Z,100.00
2023-04-09T02:58:00.795Z,100.00
2023-04-09T03:00:28.514Z,100.00
2023-04-09T03:02:58.034Z,100.00
2023-04-09T03:05:26.106Z,100.00
2023-04-09T03:07:55.989Z,100.00
2023-04-09T03:10:23.888Z,100.00
2023-04-09T03:12:51.540Z,100.00
2023-04-09T03:15:19.403Z,100.00
2023-04-09T03:17:47.107Z,100.00
2023-04-09T03:20:14.819Z,100.00
2023-04-09T03:22:43.159Z,100.00
2023-04-09T03:25:23.625Z,100.00
2023-04-09T03:27:54.966Z,100.00
2023-04-09T03:30:36.004Z,100.00
2023-04-09T03:33:06.751Z,100.00
2023-04-09T03:35:43.304Z,100.00
2023-04-09T03:38:12.176Z,100.00
2023-04-09T03:40:41.971Z,100.00
2023-04-09T03:43:09.890Z,100.00
2023-04-09T03:45:39.916Z,100.00
2023-04-09T03:48:22.302Z,100.00
2023-04-09T03:50:50.990Z,100.00
2023-04-09T03:53:26.350Z,100.00
2023-04-09T03:56:02.919Z,100.00
2023-04-09T03:58:30.996Z,100.00
2023-04-09T04:00:59.555Z,100.00
2023-04-09T04:03:36.375Z,100.00
2023-04-09T04:06:39.610Z,100.00
2023-04-09T04:09:20.336Z,100.00
2023-04-09T04:11:55.852Z,100.00
2023-04-09T04:14:27.045Z,100.00
2023-04-09T04:17:02.200Z,100.00
2023-04-09T04:19:31.652Z,100.00
2023-04-09T04:22:00.648Z,100.00
2023-04-09T04:24:28.522Z,100.00
2023-04-09T04:26:57.740Z,100.00
2023-04-09T04:29:31.594Z,100.00
2023-04-09T04:32:01.980Z,100.00
2023-04-09T04:34:35.784Z,100.00
2023-04-09T04:37:10.904Z,100.00
2023-04-09T04:39:38.537Z,100.00
2023-04-09T04:42:12.588Z,100.00
2023-04-09T04:44:40.820Z,100.00
2023-04-09T04:47:30.714Z,100.00
2023-04-09T04:49:59.693Z,100.00
2023-04-09T04:52:27.406Z,100.00
2023-04-09T04:54:55.390Z,100.00
2023-04-09T04:57:26.173Z,100.00
2023-04-09T04:59:54.526Z,100.00
2023-04-09T05:02:22.607Z,100.00
2023-04-09T05:05:09.204Z,100.00
2023-04-09T05:07:42.661Z,100.00
2023-04-09T05:10:10.843Z,100.00
2023-04-09T05:12:43.111Z,100.00
2023-04-09T05:15:13.187Z,100.00
2023-04-09T05:17:43.738Z,100.00
2023-04-09T05:20:12.871Z,100.00
2023-04-09T05:22:49.300Z,100.00
2023-04-09T05:25:17.410Z,100.00
2023-04-09T05:27:46.601Z,100.00
2023-04-09T05:30:14.414Z,100.00
2023-04-09T05:32:42.979Z,100.00
2023-04-09T05:35:10.856Z,100.00
2023-04-09T05:37:42.273Z,100.00
2023-04-09T05:40:11.113Z,100.00
2023-04-09T05:42:39.032Z,100.00
2023-04-09T05:45:14.536Z,100.00
2023-04-09T05:47:48.958Z,100.00
2023-04-09T05:50:23.320Z,100.00
2023-04-09T05:52:54.437Z,100.00
2023-04-09T05:55:27.508Z,100.00
2023-04-09T05:57:59.918Z,100.00
2023-04-09T06:00:29.343Z,100.00
2023-04-09T06:02:57.157Z,100.00
2023-04-09T06:05:24.839Z,100.00
2023-04-09T06:07:52.642Z,100.00
2023-04-09T06:10:20.478Z,100.00
2023-04-09T06:12:49.541Z,100.00
2023-04-09T06:15:18.592Z,100.00
2023-04-09T06:17:47.768Z,100.00
2023-04-09T06:20:15.535Z,100.00
2023-04-09T06:22:43.154Z,100.00
2023-04-09T06:25:10.967Z,100.00
2023-04-09T06:27:38.646Z,100.00
2023-04-09T06:30:07.759Z,100.00
2023-04-09T06:32:47.007Z,100.00
2023-04-09T06:35:22.555Z,100.00
2023-04-09T06:37:50.359Z,100.00
2023-04-09T06:40:20.146Z,100.00
2023-04-09T06:42:49.073Z,100.00
2023-04-09T06:45:23.009Z,100.00
2023-04-09T06:47:50.982Z,100.00
2023-04-09T06:50:18.767Z,99.42
2023-04-09T06:52:47.805Z,100.00
2023-04-09T06:55:15.559Z,100.00
2023-04-09T06:57:43.288Z,98.92
2023-04-09T07:00:12.140Z,98.90
2023-04-09T07:02:40.477Z,98.82
2023-04-09T07:05:09.288Z,99.90
2023-04-09T07:07:37.028Z,96.21
2023-04-09T07:10:07.316Z,97.25
2023-04-09T07:12:35.670Z,97.40
2023-04-09T07:15:05.780Z,94.92
2023-04-09T07:17:34.069Z,92.06
2023-04-09T07:20:01.992Z,90.24
2023-04-09T07:22:30.676Z,93.04
2023-04-09T07:24:58.358Z,93.11
2023-04-09T07:27:28.848Z,93.54
2023-04-09T07:29:57.090Z,90.43
2023-04-09T07:32:25.379Z,89.60
2023-04-09T07:34:53.563Z,88.47
2023-04-09T07:37:21.754Z,84.68
2023-04-09T07:39:51.201Z,85.65
2023-04-09T07:42:19.068Z,86.70
2023-04-09T07:44:48.093Z,83.91
2023-04-09T07:47:15.992Z,81.31
2023-04-09T07:49:43.896Z,79.38
2023-04-09T07:52:11.696Z,75.22
2023-04-09T07:54:39.389Z,73.70
2023-04-09T07:57:08.099Z,70.37
2023-04-09T07:59:36.304Z,67.88
2023-04-09T08:02:05.503Z,69.25
2023-04-09T08:04:33.586Z,70.43
2023-04-09T08:07:01.575Z,69.54
2023-04-09T08:09:29.374Z,69.05
2023-04-09T08:11:57.199Z,69.56
2023-04-09T08:14:24.938Z,71.48
2023-04-09T08:16:53.033Z,67.92
2023-04-09T08:19:22.207Z,66.75
2023-04-09T08:21:49.953Z,68.50
2023-04-09T08:24:18.291Z,68.08
2023-04-09T08:26:46.168Z,67.31
2023-04-09T08:29:14.411Z,67.18
2023-04-09T08:31:42.989Z,66.94
2023-04-09T08:34:10.861Z,66.98
2023-04-09T08:36:40.243Z,64.15
2023-04-09T08:39:07.973Z,62.87
2023-04-09T08:41:39.171Z,63.53
2023-04-09T08:44:07.255Z,62.46
2023-04-09T08:46:37.101Z,62.50
2023-04-09T08:49:04.900Z,61.27
2023-04-09T08:51:32.935Z,63.96
2023-04-09T08:54:04.610Z,60.85
2023-04-09T08:56:33.424Z,61.21
2023-04-09T08:59:01.222Z,60.28
2023-04-09T09:01:30.481Z,60.80
2023-04-09T09:04:00.007Z,57.88
2023-04-09T09:06:30.025Z,57.69
2023-04-09T09:09:05.226Z,55.81
2023-04-09T09:11:33.453Z,55.66
2023-04-09T09:14:03.397Z,53.70
2023-04-09T09:16:33.161Z,54.88
2023-04-09T09:19:01.917Z,54.60
2023-04-09T09:21:30.576Z,55.94
2023-04-09T09:23:58.785Z,56.14
2023-04-09T09:26:30.057Z,53.22
2023-04-09T09:28:59.753Z,51.91
2023-04-09T09:31:27.912Z,52.80
2023-04-09T09:33:56.382Z,53.10
2023-04-09T09:36:34.047Z,53.23
2023-04-09T09:39:09.986Z,51.32
2023-04-09T09:41:39.834Z,48.75
2023-04-09T09:44:08.003Z,52.02
2023-04-09T09:46:38.313Z,49.67
2023-04-09T09:49:06.183Z,50.19
2023-04-09T09:51:36.878Z,49.95
2023-04-09T09:54:04.953Z,49.24
2023-04-09T09:56:36.040Z,49.88
2023-04-09T09:59:14.055Z,51.06
2023-04-09T10:01:42.678Z,49.45
2023-04-09T10:04:15.687Z,48.77
2023-04-09T10:06:45.157Z,50.39
2023-04-09T10:09:13.823Z,49.33
2023-04-09T10:11:45.442Z,51.86
2023-04-09T10:14:15.326Z,52.06
2023-04-09T10:16:43.368Z,51.74
2023-04-09T10:19:14.174Z,49.86
2023-04-09T10:21:48.625Z,48.94
2023-04-09T10:24:17.324Z,50.75
2023-04-09T10:26:46.016Z,48.65
2023-04-09T10:29:16.898Z,48.68
2023-04-09T10:31:50.071Z,47.86
2023-04-09T10:34:19.403Z,47.09
2023-04-09T10:36:51.560Z,46.64
2023-04-09T10:39:19.527Z,46.82
2023-04-09T10:41:48.971Z,46.61
2023-04-09T10:44:25.239Z,48.07
2023-04-09T10:46:55.186Z,46.10
2023-04-09T10:49:24.272Z,46.54
2023-04-09T10:51:53.405Z,44.05
2023-04-09T10:54:43.681Z,45.73
2023-04-09T10:57:13.622Z,45.90
2023-04-09T10:59:44.897Z,45.39
2023-04-09T11:02:55.866Z,45.86
2023-04-09T11:05:30.082Z,46.90
2023-04-09T11:08:04.163Z,46.28
2023-04-09T11:10:32.309Z,46.98
2023-04-09T11:13:00.431Z,48.13
2023-04-09T11:15:30.100Z,47.08
2023-04-09T11:17:58.535Z,47.34
2023-04-09T11:20:27.465Z,47.17
2023-04-09T11:22:56.617Z,46.49
2023-04-09T11:25:26.323Z,44.24
2023-04-09T11:27:54.820Z,44.89
2023-04-09T11:30:22.738Z,43.99
2023-04-09T11:32:52.350Z,43.85
2023-04-09T11:35:22.143Z,43.85
2023-04-09T11:37:52.233Z,44.55
2023-04-09T11:40:22.003Z,44.00
2023-04-09T11:42:51.255Z,44.33
2023-04-09T11:45:20.417Z,41.66
2023-04-09T11:47:48.409Z,43.46
2023-04-09T11:50:17.609Z,43.95
2023-04-09T11:52:46.205Z,44.45
2023-04-09T11:55:23.491Z,43.31
2023-04-09T11:57:53.040Z,43.39
2023-04-09T12:00:21.268Z,43.12
2023-04-09T12:02:50.484Z,42.98
2023-04-09T12:05:24.706Z,43.99
2023-04-09T12:07:56.605Z,42.93
2023-04-09T12:10:28.275Z,42.72
2023-04-09T12:12:56.247Z,42.24
2023-04-09T12:15:25.712Z,41.48
2023-04-09T12:17:57.024Z,42.83
2023-04-09T12:20:34.359Z,41.34
2023-04-09T12:23:05.726Z,41.51
2023-04-09T12:25:35.405Z,41.32
2023-04-09T12:28:03.678Z,40.69
2023-04-09T12:30:31.424Z,38.87
2023-04-09T12:32:59.842Z,37.42
2023-04-09T12:35:28.194Z,35.53
2023-04-09T12:37:57.525Z,36.90
2023-04-09T12:40:25.186Z,38.68
2023-04-09T12:42:53.146Z,35.07
2023-04-09T12:45:21.496Z,35.44
2023-04-09T12:47:49.428Z,38.23
2023-04-09T12:50:17.193Z,40.16
2023-04-09T12:52:45.427Z,38.97
2023-04-09T12:55:15.081Z,39.07
2023-04-09T12:57:45.267Z,37.33
2023-04-09T13:00:14.285Z,35.82
2023-04-09T13:02:42.413Z,35.55
2023-04-09T13:05:10.615Z,36.55
2023-04-09T13:07:38.592Z,37.83
2023-04-09T13:10:07.717Z,36.67
2023-04-09T13:12:36.751Z,35.02
2023-04-09T13:15:05.053Z,35.65
2023-04-09T13:17:32.816Z,39.65
2023-04-09T13:20:01.271Z,36.31
2023-04-09T13:22:28.998Z,38.20
2023-04-09T13:24:56.863Z,36.53
2023-04-09T13:27:24.710Z,35.12
2023-04-09T13:29:53.906Z,35.35
2023-04-09T13:32:24.064Z,34.85
2023-04-09T13:34:53.645Z,36.39
2023-04-09T13:37:21.513Z,37.34
2023-04-09T13:39:49.270Z,39.20
2023-04-09T13:42:17.084Z,38.58
2023-04-09T13:44:45.523Z,37.13
2023-04-09T13:47:18.123Z,37.44
2023-04-09T13:49:46.176Z,35.82
2023-04-09T13:52:15.737Z,35.83
2023-04-09T13:54:43.381Z,36.30
2023-04-09T13:57:11.272Z,36.12
2023-04-09T13:59:39.107Z,35.66
2023-04-09T14:02:06.987Z,35.52
2023-04-09T14:04:36.147Z,35.42
2023-04-09T14:07:04.001Z,33.16
2023-04-09T14:09:31.915Z,35.99
2023-04-09T14:11:59.589Z,36.02
2023-04-09T14:14:27.562Z,36.50
2023-04-09T14:16:55.312Z,36.86
2023-04-09T14:19:24.074Z,35.11
2023-04-09T14:21:54.081Z,36.07
2023-04-09T14:24:23.122Z,34.90
2023-04-09T14:26:53.007Z,35.28
2023-04-09T14:29:20.826Z,35.07
2023-04-09T14:31:48.845Z,35.22
2023-04-09T14:34:16.541Z,36.17
2023-04-09T14:36:44.253Z,36.90
2023-04-09T14:39:13.274Z,36.36
2023-04-09T14:41:41.537Z,35.97
2023-04-09T14:44:09.335Z,35.68
2023-04-09T14:46:38.085Z,35.00
2023-04-09T14:49:06.258Z,35.33
2023-04-09T14:51:34.075Z,37.86
2023-04-09T14:54:02.516Z,37.57
2023-04-09T14:56:31.506Z,37.28
2023-04-09T14:58:59.225Z,36.83
2023-04-09T15:01:27.155Z,38.45
2023-04-09T15:03:55.652Z,37.51
2023-04-09T15:06:23.586Z,39.76
2023-04-09T15:08:51.519Z,38.53
2023-04-09T15:11:22.771Z,41.17
2023-04-09T15:13:52.333Z,38.51
2023-04-09T15:16:24.494Z,40.21
2023-04-09T15:18:52.851Z,39.35
2023-04-09T15:21:20.758Z,40.73
2023-04-09T15:23:48.673Z,41.36
2023-04-09T15:26:16.971Z,41.56
2023-04-09T15:28:46.087Z,38.70
2023-04-09T15:31:15.183Z,40.33
2023-04-09T15:33:43.722Z,40.44
2023-04-09T15:36:11.962Z,40.82
2023-04-09T15:38:40.068Z,41.24
2023-04-09T15:41:07.819Z,42.53
2023-04-09T15:43:35.596Z,41.96
2023-04-09T15:46:08.856Z,44.74
2023-04-09T15:48:38.187Z,42.58
2023-04-09T15:51:06.685Z,44.68
2023-04-09T15:53:34.361Z,45.04
2023-04-09T15:56:02.158Z,43.64
2023-04-09T15:58:29.883Z,39.73
2023-04-09T16:00:57.598Z,39.34
2023-04-09T16:03:25.615Z,39.38
2023-04-09T16:05:54.614Z,40.38
2023-04-09T16:08:22.301Z,38.63
2023-04-09T16:10:50.389Z,38.36
2023-04-09T16:13:18.036Z,38.96
2023-04-09T16:15:46.702Z,38.65
2023-04-09T16:18:14.453Z,39.97
2023-04-09T16:20:42.181Z,39.11
2023-04-09T16:23:11.213Z,39.89
2023-04-09T16:25:39.016Z,40.16
2023-04-09T16:28:06.731Z,38.20
2023-04-09T16:30:34.374Z,38.65
2023-04-09T16:33:02.236Z,38.18
2023-04-09T16:35:29.947Z,40.86
2023-04-09T16:37:57.730Z,38.42
2023-04-09T16:40:26.779Z,39.44
2023-04-09T16:42:54.511Z,38.86
2023-04-09T16:45:22.483Z,39.11
2023-04-09T16:47:53.373Z,38.09
2023-04-09T16:50:21.851Z,36.86
2023-04-09T16:52:49.801Z,39.11
2023-04-09T16:55:18.704Z,40.06
2023-04-09T16:57:47.663Z,39.11
2023-04-09T17:00:17.342Z,39.71
2023-04-09T17:02:45.782Z,39.45
2023-04-09T17:05:13.700Z,39.44
2023-04-09T17:07:41.421Z,38.91
2023-04-09T17:10:09.977Z,40.02
2023-04-09T17:12:38.046Z,42.46
2023-04-09T17:15:08.543Z,42.66
2023-04-09T17:17:36.297Z,44.81
2023-04-09T17:20:04.502Z,42.95
2023-04-09T17:22:32.395Z,43.34
2023-04-09T17:25:00.351Z,45.68
2023-04-09T17:27:28.558Z,45.76
2023-04-09T17:29:56.343Z,46.72
2023-04-09T17:32:25.455Z,47.34
2023-04-09T17:34:53.254Z,48.56
2023-04-09T17:37:21.168Z,48.54
2023-04-09T17:39:48.866Z,49.69
2023-04-09T17:42:16.686Z,49.91
2023-04-09T17:44:45.930Z,50.69
2023-04-09T17:47:13.688Z,52.43
2023-04-09T17:49:42.716Z,53.07
2023-04-09T17:52:10.500Z,53.79
2023-04-09T17:54:39.110Z,55.41
2023-04-09T17:57:07.872Z,56.63
2023-04-09T17:59:35.707Z,57.73
2023-04-09T18:02:03.627Z,58.34
2023-04-09T18:04:32.501Z,58.67
2023-04-09T18:07:01.899Z,59.93
2023-04-09T18:09:29.642Z,60.00
2023-04-09T18:11:57.753Z,60.97
2023-04-09T18:14:25.568Z,63.52
2023-04-09T18:16:53.583Z,64.09
2023-04-09T18:19:21.752Z,64.91
2023-04-09T18:21:49.383Z,66.00
2023-04-09T18:24:18.973Z,66.39
2023-04-09T18:26:46.594Z,67.77
2023-04-09T18:29:14.316Z,69.00
2023-04-09T18:31:42.034Z,70.77
2023-04-09T18:34:09.752Z,74.30
2023-04-09T18:36:37.623Z,73.45
2023-04-09T18:39:05.774Z,78.93
2023-04-09T18:41:34.848Z,81.01
2023-04-09T18:44:03.964Z,82.94
2023-04-09T18:46:32.057Z,82.08
2023-04-09T18:48:59.806Z,83.41
2023-04-09T18:51:27.963Z,84.93
2023-04-09T18:53:55.842Z,86.04
2023-04-09T18:56:24.596Z,87.23
2023-04-09T18:58:53.859Z,87.50
2023-04-09T19:01:22.142Z,87.16
2023-04-09T19:03:49.929Z,88.05
2023-04-09T19:06:19.824Z,88.94
2023-04-09T19:08:47.921Z,87.38
2023-04-09T19:11:16.118Z,86.95
2023-04-09T19:13:43.764Z,88.30
2023-04-09T19:16:13.146Z,88.06
2023-04-09T19:18:40.891Z,88.83
2023-04-09T19:21:08.970Z,89.39
2023-04-09T19:23:36.638Z,90.60
2023-04-09T19:26:05.377Z,88.68
2023-04-09T19:28:33.267Z,85.12
2023-04-09T19:31:02.815Z,84.93
2023-04-09T19:33:32.701Z,86.57
2023-04-09T19:36:00.420Z,84.12
2023-04-09T19:38:28.174Z,87.59
2023-04-09T19:40:56.159Z,83.08
2023-04-09T19:43:23.979Z,80.73
2023-04-09T19:45:51.670Z,78.98
2023-04-09T19:48:19.441Z,81.18
2023-04-09T19:50:48.878Z,80.03
2023-04-09T19:53:16.604Z,80.00
2023-04-09T19:55:44.613Z,81.60
2023-04-09T19:58:12.276Z,84.13
2023-04-09T20:00:39.998Z,84.12
2023-04-09T20:03:08.037Z,83.92
2023-04-09T20:05:35.847Z,83.41
2023-04-09T20:08:05.575Z,84.58
2023-04-09T20:10:33.314Z,84.62
2023-04-09T20:13:01.614Z,85.75
2023-04-09T20:15:29.690Z,84.16
2023-04-09T20:17:57.390Z,81.68
2023-04-09T20:20:25.177Z,82.04
2023-04-09T20:22:56.144Z,82.46
2023-04-09T20:25:27.814Z,84.41
2023-04-09T20:27:55.830Z,81.75
2023-04-09T20:30:23.620Z,83.04
2023-04-09T20:32:51.584Z,84.53
2023-04-09T20:35:19.399Z,84.84
2023-04-09T20:37:48.378Z,84.31
2023-04-09T20:40:16.454Z,85.05
2023-04-09T20:42:45.509Z,84.50
2023-04-09T20:45:13.225Z,84.77
2023-04-09T20:47:40.931Z,85.30
2023-04-09T20:50:09.784Z,85.52
2023-04-09T20:52:38.219Z,87.46
2023-04-09T20:55:07.388Z,88.58
2023-04-09T20:57:35.037Z,86.55
2023-04-09T21:00:04.230Z,84.70
2023-04-09T21:02:32.083Z,84.99
2023-04-09T21:05:05.475Z,83.92
2023-04-09T21:07:42.953Z,81.90
2023-04-09T21:10:10.909Z,85.00
2023-04-09T21:12:38.551Z,83.88
2023-04-09T21:15:09.094Z,83.52
2023-04-09T21:17:36.797Z,83.11
2023-04-09T21:20:05.241Z,84.56
2023-04-09T21:22:32.979Z,84.20
2023-04-09T21:25:00.682Z,86.14
2023-04-09T21:27:28.339Z,88.42
2023-04-09T21:29:56.044Z,86.23
2023-04-09T21:32:25.248Z,89.56
2023-04-09T21:34:53.064Z,91.78
2023-04-09T21:37:20.723Z,90.95
2023-04-09T21:39:48.771Z,94.83
2023-04-09T21:42:16.813Z,93.19
2023-04-09T21:44:44.537Z,96.96
2023-04-09T21:47:13.058Z,97.41
2023-04-09T21:49:42.993Z,97.23
2023-04-09T21:52:14.920Z,97.92
2023-04-09T21:54:43.177Z,95.26
2023-04-09T21:57:11.060Z,94.76
2023-04-09T21:59:40.972Z,97.51
2023-04-09T22:02:08.690Z,98.27
2023-04-09T22:04:36.553Z,99.10
2023-04-09T22:07:05.680Z,99.87
2023-04-09T22:09:33.470Z,100.00
2023-04-09T22:12:02.615Z,100.00
2023-04-09T22:14:32.341Z,100.00
2023-04-09T22:17:01.512Z,100.00
2023-04-09T22:19:31.424Z,100.00
2023-04-09T22:21:59.684Z,100.00
2023-04-09T22:24:30.079Z,100.00
2023-04-09T22:26:58.823Z,100.00
2023-04-09T22:29:27.671Z,100.00
2023-04-09T22:31:55.714Z,100.00
2023-04-09T22:34:23.624Z,100.00
2023-04-09T22:36:51.536Z,100.00
2023-04-09T22:39:19.661Z,100.00
2023-04-09T22:41:48.659Z,100.00
2023-04-09T22:44:16.437Z,100.00
2023-04-09T22:46:44.547Z,100.00
2023-04-09T22:49:12.335Z,100.00
2023-04-09T22:51:41.763Z,100.00
2023-04-09T22:54:09.780Z,100.00
2023-04-09T22:56:37.677Z,100.00
2023-04-09T22:59:07.073Z,100.00
2023-04-09T23:01:34.879Z,100.00
2023-04-09T23:04:02.595Z,100.00
2023-04-09T23:06:30.837Z,100.00
2023-04-09T23:08:59.723Z,100.00
2023-04-09T23:11:27.572Z,100.00
2023-04-09T23:13:55.326Z,100.00
2023-04-09T23:16:24.374Z,100.00
2023-04-09T23:18:52.325Z,100.00
2023-04-09T23:21:20.759Z,100.00
2023-04-09T23:23:48.397Z,100.00
2023-04-09T23:26:16.113Z,100.00
2023-04-09T23:28:43.769Z,100.00
2023-04-09T23:31:11.589Z,100.00
2023-04-09T23:33:40.713Z,100.00
2023-04-09T23:36:09.040Z,100.00
2023-04-09T23:38:36.790Z,100.00
2023-04-09T23:41:04.562Z,100.00
2023-04-09T23:43:32.448Z,100.00
2023-04-09T23:46:00.071Z,100.00
2023-04-09T23:48:27.824Z,100.00
2023-04-09T23:50:56.848Z,100.00
2023-04-09T23:53:24.658Z,100.00
2023-04-09T23:55:52.613Z,100.00
2023-04-09T23:58:21.294Z,100.00
